Time;durP1;ratioP1;P1;durP2;ratioP2;P2;SDS_P1;SDS_P2;PMS_P1;PMS_P2;Temp;Humidity;BMP_temperature;BMP_pressure;BME280_temperature;BME280_humidity;BME280_pressure;Samples;Min_cycle;Max_cycle;Signal;HPM_P1;HPM_P2
2021/11/04 00:00:29;;;;;;;1999.90;999.90;;;;;;;8.68;100.00;95738.28;5053949;28;20224;-74
2021/11/04 00:02:57;;;;;;;1999.90;999.90;;;;;;;8.48;100.00;95736.66;5053540;28;20608;-73
2021/11/04 00:05:24;;;;;;;1999.90;999.90;;;;;;;8.32;100.00;95733.44;5053438;28;20205;-74
2021/11/04 00:07:52;;;;;;;1999.90;999.90;;;;;;;8.46;100.00;95743.97;5053738;28;20678;-74
2021/11/04 00:10:21;;;;;;;1999.90;999.90;;;;;;;8.73;100.00;95749.38;5053448;28;20201;-74
2021/11/04 00:12:50;;;;;;;1999.90;999.90;;;;;;;8.87;100.00;95752.09;5053185;28;20261;-74
2021/11/04 00:15:18;;;;;;;1999.90;999.90;;;;;;;8.86;100.00;95751.34;5053724;28;20205;-75
2021/11/04 00:17:45;;;;;;;1999.90;999.90;;;;;;;8.77;100.00;95749.59;5053602;28;20237;-74
2021/11/04 00:20:14;;;;;;;1999.90;999.90;;;;;;;8.68;100.00;95751.25;5053626;28;20746;-73
2021/11/04 00:22:41;;;;;;;1999.90;999.90;;;;;;;8.67;100.00;95747.13;5053497;28;20193;-74
2021/11/04 00:25:09;;;;;;;1999.90;999.90;;;;;;;8.69;100.00;95745.81;5053582;28;20275;-74
2021/11/04 00:27:37;;;;;;;1999.90;999.90;;;;;;;8.73;100.00;95749.38;5053251;28;20193;-74
2021/11/04 00:30:08;;;;;;;1999.90;999.90;;;;;;;8.79;100.00;95753.47;5053449;28;20227;-74
2021/11/04 00:32:35;;;;;;;1999.90;999.90;;;;;;;8.84;100.00;95755.22;5053375;28;20213;-74
2021/11/04 00:35:02;;;;;;;1999.90;999.90;;;;;;;8.86;100.00;95766.09;5053077;28;20200;-74
2021/11/04 00:37:29;;;;;;;1999.90;999.90;;;;;;;8.82;100.00;95771.03;5053469;28;20201;-74
2021/11/04 00:39:56;;;;;;;1999.90;999.90;;;;;;;8.91;100.00;95773.84;5053512;28;20237;-74
2021/11/04 00:42:23;;;;;;;1999.90;999.90;;;;;;;8.89;100.00;95773.31;5053543;28;20193;-74
2021/11/04 00:44:50;;;;;;;1999.90;999.90;;;;;;;9.04;100.00;95779.13;5053447;28;20211;-74
2021/11/04 00:47:19;;;;;;;1999.90;999.90;;;;;;;9.15;100.00;95774.59;5053229;28;20201;-74
2021/11/04 00:49:46;;;;;;;1999.90;999.90;;;;;;;9.06;100.00;95776.25;5052745;28;20288;-74
2021/11/04 00:52:13;;;;;;;1999.90;999.90;;;;;;;9.10;100.00;95764.28;5052649;28;20282;-74
2021/11/04 00:54:40;;;;;;;1999.90;999.90;;;;;;;9.18;100.00;95750.69;5053132;28;20201;-74
2021/11/04 00:57:07;;;;;;;1999.90;999.90;;;;;;;9.25;100.00;95747.78;5052903;28;20270;-74
2021/11/04 00:59:34;;;;;;;1999.90;999.90;;;;;;;9.19;100.00;95746.28;5052958;28;20201;-74
2021/11/04 01:02:01;;;;;;;1999.90;999.90;;;;;;;9.27;100.00;95745.66;5052851;28;20197;-74
2021/11/04 01:04:30;;;;;;;1999.90;999.90;;;;;;;9.32;100.00;95743.78;5052569;28;20327;-74
2021/11/04 01:06:57;;;;;;;1999.90;999.90;;;;;;;9.40;100.00;95747.59;5052816;28;20197;-74
2021/11/04 01:09:24;;;;;;;1999.90;999.90;;;;;;;9.35;100.00;95743.25;5051797;28;20203;-74
2021/11/04 01:11:51;;;;;;;1999.90;999.90;;;;;;;9.35;100.00;95735.47;5050934;28;20313;-74
2021/11/04 01:14:18;;;;;;;1999.90;999.90;;;;;;;9.34;100.00;95727.94;5052547;28;20193;-74
2021/11/04 01:16:45;;;;;;;1999.90;999.90;;;;;;;9.24;100.00;95728.09;5052302;28;20197;-74
2021/11/04 01:19:12;;;;;;;1999.90;999.90;;;;;;;9.17;100.00;95727.63;5051858;28;20201;-74
2021/11/04 01:21:42;;;;;;;1999.90;999.90;;;;;;;9.16;100.00;95729.47;5052179;28;20193;-74
2021/11/04 01:24:10;;;;;;;1999.90;999.90;;;;;;;9.18;100.00;95734.38;5052378;28;20197;-74
2021/11/04 01:26:37;;;;;;;1999.90;999.90;;;;;;;9.28;100.00;95742.81;5052109;28;20193;-74
2021/11/04 01:29:04;;;;;;;1999.90;999.90;;;;;;;9.39;100.00;95757.19;5052359;28;20219;-74
2021/11/04 01:31:31;;;;;;;1999.90;999.90;;;;;;;9.40;100.00;95765.75;5052167;28;20233;-74
2021/11/04 01:33:58;;;;;;;1999.90;999.90;;;;;;;9.26;100.00;95762.28;5051940;28;20681;-74
2021/11/04 01:36:25;;;;;;;1999.90;999.90;;;;;;;9.24;100.00;95754.78;5051951;28;20689;-74
2021/11/04 01:38:54;;;;;;;1999.90;999.90;;;;;;;9.24;100.00;95754.00;5051817;28;20657;-75
2021/11/04 01:41:21;;;;;;;1999.90;999.90;;;;;;;9.31;100.00;95747.44;5052143;28;20563;-74
2021/11/04 01:43:48;;;;;;;1999.90;999.90;;;;;;;9.31;100.00;95736.31;5051842;28;20247;-74
2021/11/04 01:46:15;;;;;;;1999.90;999.90;;;;;;;9.34;100.00;95731.31;5051726;28;20201;-75
2021/11/04 01:48:42;;;;;;;1999.90;999.90;;;;;;;9.45;100.00;95737.94;5051958;28;20266;-75
2021/11/04 01:51:10;;;;;;;1999.90;999.90;;;;;;;9.53;100.00;95726.13;5051977;28;20252;-74
2021/11/04 01:53:37;;;;;;;1999.90;999.90;;;;;;;9.63;100.00;95725.22;5051783;28;20599;-74
2021/11/04 01:56:06;;;;;;;1999.90;999.90;;;;;;;9.70;100.00;95726.44;5051481;28;20693;-74
2021/11/04 01:58:34;;;;;;;1999.90;999.90;;;;;;;9.68;100.00;95730.34;5050844;28;20288;-74
2021/11/04 02:01:01;;;;;;;1999.90;999.90;;;;;;;9.61;100.00;95732.53;5051517;28;20229;-74
2021/11/04 02:03:34;;;;;;;1999.90;999.90;;;;;;;9.44;100.00;95725.22;5051358;28;20247;-75
2021/11/04 02:06:10;;;;;;;1999.90;999.90;;;;;;;9.43;100.00;95721.84;5051350;28;20225;-74
2021/11/04 02:08:42;;;;;;;1999.90;999.90;;;;;;;9.65;100.00;95730.91;5051316;28;20193;-74
2021/11/04 02:11:15;;;;;;;1999.90;999.90;;;;;;;9.72;100.00;95728.72;5051393;28;20315;-74
2021/11/04 02:13:47;;;;;;;1999.90;999.90;;;;;;;9.77;100.00;95729.44;5031471;28;20674;-75
2021/11/04 02:16:17;;;;;;;1999.90;999.90;;;;;;;9.87;100.00;95731.09;5031281;28;20225;-74
2021/11/04 02:18:48;;;;;;;1999.90;999.90;;;;;;;9.96;100.00;95739.03;5031226;28;20193;-74
2021/11/04 02:21:23;;;;;;;1999.90;999.90;;;;;;;9.87;100.00;95750.03;5030457;28;20186;-74
2021/11/04 02:23:56;;;;;;;1999.90;999.90;;;;;;;9.89;100.00;95747.19;5031437;28;20185;-75
2021/11/04 02:26:25;;;;;;;1999.90;999.90;;;;;;;9.79;100.00;95760.28;5031449;28;20190;-74
2021/11/04 02:28:53;;;;;;;1999.90;999.90;;;;;;;9.79;100.00;95755.88;5031038;28;20198;-74
2021/11/04 02:31:23;;;;;;;1999.90;999.90;;;;;;;9.82;100.00;95768.28;5030955;28;20236;-74
2021/11/04 02:33:51;;;;;;;1999.90;999.90;;;;;;;9.71;100.00;95763.53;5030853;28;20221;-74
2021/11/04 02:36:19;;;;;;;1999.90;999.90;;;;;;;9.65;100.00;95765.44;5031240;28;20206;-74
2021/11/04 02:38:46;;;;;;;1999.90;999.90;;;;;;;9.73;100.00;95771.78;5030863;28;20193;-74
2021/11/04 02:41:13;;;;;;;1999.90;999.90;;;;;;;9.68;100.00;95780.44;5030982;28;20665;-75
2021/11/04 02:43:42;;;;;;;1999.90;999.90;;;;;;;9.65;100.00;95780.22;5030739;28;20255;-74
2021/11/04 02:46:11;;;;;;;1999.90;999.90;;;;;;;9.51;100.00;95778.28;5030588;28;20237;-74
2021/11/04 02:48:40;;;;;;;1999.90;999.90;;;;;;;9.59;100.00;95776.13;5030954;28;20194;-74
2021/11/04 02:51:08;;;;;;;1999.90;999.90;;;;;;;9.57;100.00;95776.41;5030641;28;20253;-75
2021/11/04 02:53:35;;;;;;;1999.90;999.90;;;;;;;9.59;100.00;95776.91;5030774;28;20221;-74
2021/11/04 02:56:02;;;;;;;1999.90;999.90;;;;;;;9.61;100.00;95771.44;5030481;28;20247;-74
2021/11/04 02:58:30;;;;;;;1999.90;999.90;;;;;;;9.65;100.00;95786.19;5030644;28;20206;-74
2021/11/04 03:01:03;;;;;;;1999.90;999.90;;;;;;;9.52;100.00;95786.84;5030664;28;20267;-74
2021/11/04 03:03:30;;;;;;;1999.90;999.90;;;;;;;9.52;100.00;95792.81;5030808;28;20605;-74
2021/11/04 03:05:57;;;;;;;1999.90;999.90;;;;;;;9.45;100.00;95787.22;5030396;28;20193;-74
2021/11/04 03:08:25;;;;;;;1999.90;999.90;;;;;;;9.33;100.00;95804.97;5030879;28;20198;-74
2021/11/04 03:10:52;;;;;;;1999.90;999.90;;;;;;;9.08;100.00;95795.66;5030446;28;20197;-74
2021/11/04 03:13:19;;;;;;;1999.90;999.90;;;;;;;9.08;100.00;95800.06;5043572;28;20988;-74
2021/11/04 03:15:48;;;;;;;1999.90;999.90;;;;;;;9.10;100.00;95805.75;5050361;28;20189;-74
2021/11/04 03:18:17;;;;;;;1999.90;999.90;;;;;;;9.36;100.00;95799.25;5050082;28;20201;-74
2021/11/04 03:20:46;;;;;;;1999.90;999.90;;;;;;;9.43;100.00;95797.09;5050018;28;20193;-74
2021/11/04 03:23:13;;;;;;;1999.90;999.90;;;;;;;9.44;100.00;95797.84;5050167;28;20203;-74
2021/11/04 03:25:42;;;;;;;1999.90;999.90;;;;;;;9.17;100.00;95801.00;5050258;28;20201;-74
2021/11/04 03:28:10;;;;;;;1999.90;999.90;;;;;;;8.87;100.00;95802.09;5049979;28;20201;-74
2021/11/04 03:30:39;;;;;;;1999.90;999.90;;;;;;;8.77;100.00;95806.59;5049736;28;20223;-75
2021/11/04 03:33:09;;;;;;;1999.90;999.90;;;;;;;8.55;100.00;95801.88;5049845;28;20221;-74
2021/11/04 03:35:38;;;;;;;1999.90;999.90;;;;;;;8.28;100.00;95799.72;5050037;28;20189;-74
2021/11/04 03:38:10;;;;;;;1999.90;999.90;;;;;;;8.12;100.00;95791.28;5049903;28;20211;-74
2021/11/04 03:40:38;;;;;;;1999.90;999.90;;;;;;;8.02;100.00;95790.63;5049799;28;20216;-74
2021/11/04 03:43:07;;;;;;;1999.90;999.90;;;;;;;7.94;100.00;95804.09;5049928;28;20241;-74
2021/11/04 03:45:35;;;;;;;1999.90;999.90;;;;;;;7.89;100.00;95801.56;5050008;28;20551;-75
2021/11/04 03:48:03;;;;;;;1999.90;999.90;;;;;;;7.83;100.00;95800.03;5049941;28;20236;-75
2021/11/04 03:50:32;;;;;;;1999.90;999.90;;;;;;;7.72;100.00;95797.50;5049945;28;20197;-75
2021/11/04 03:53:01;;;;;;;1999.90;999.90;;;;;;;7.58;100.00;95801.72;5049931;28;20225;-74
2021/11/04 03:55:31;;;;;;;1999.90;999.90;;;;;;;7.43;100.00;95809.53;5049924;28;20263;-74
2021/11/04 03:57:59;;;;;;;1999.90;999.90;;;;;;;7.41;100.00;95809.03;5049280;28;20665;-74
2021/11/04 04:00:27;;;;;;;1999.90;999.90;;;;;;;7.39;100.00;95803.34;5050193;28;20213;-75
2021/11/04 04:02:54;;;;;;;1999.90;999.90;;;;;;;7.27;100.00;95808.81;5050084;28;20664;-74
2021/11/04 04:05:29;;;;;;;1999.90;999.90;;;;;;;7.33;100.00;95805.19;5050045;28;20201;-74
2021/11/04 04:07:56;;;;;;;1999.90;999.90;;;;;;;7.25;100.00;95807.56;5049599;28;20250;-74
2021/11/04 04:10:26;;;;;;;1999.90;999.90;;;;;;;7.17;100.00;95805.53;5049991;28;20201;-75
2021/11/04 04:12:53;;;;;;;1999.90;999.90;;;;;;;7.01;100.00;95817.69;5049246;28;20236;-74
2021/11/04 04:15:21;;;;;;;1999.90;999.90;;;;;;;6.83;100.00;95815.66;5049481;28;20201;-75
2021/11/04 04:17:48;;;;;;;1999.90;999.90;;;;;;;6.73;100.00;95813.88;5049547;28;20193;-74
2021/11/04 04:20:15;;;;;;;1999.90;999.90;;;;;;;6.72;100.00;95811.56;5049889;28;20283;-74
2021/11/04 04:22:42;;;;;;;1999.90;999.90;;;;;;;6.62;100.00;95807.19;5049688;28;20280;-74
2021/11/04 04:25:09;;;;;;;1999.90;999.90;;;;;;;6.51;100.00;95808.22;5049362;28;20201;-75
2021/11/04 04:27:37;;;;;;;1999.90;999.90;;;;;;;6.40;100.00;95817.00;5049487;28;20255;-74
2021/11/04 04:30:05;;;;;;;1999.90;999.90;;;;;;;6.35;100.00;95815.19;5049255;28;20205;-75
2021/11/04 04:32:32;;;;;;;1999.90;999.90;;;;;;;6.27;100.00;95813.13;5049130;28;20221;-74
2021/11/04 04:34:59;;;;;;;1999.90;999.90;;;;;;;6.27;100.00;95820.88;5049275;28;20636;-74
2021/11/04 04:37:26;;;;;;;1999.90;999.90;;;;;;;6.51;100.00;95823.72;5049689;28;20204;-74
2021/11/04 04:39:53;;;;;;;1999.90;999.90;;;;;;;6.38;100.00;95824.97;5049347;28;20696;-74
2021/11/04 04:42:20;;;;;;;1999.90;999.90;;;;;;;6.27;100.00;95822.69;5049236;28;20204;-74
2021/11/04 04:44:50;;;;;;;1999.90;999.90;;;;;;;6.28;100.00;95808.72;5052731;28;20330;-74
2021/11/04 04:47:17;;;;;;;1999.90;999.90;;;;;;;6.24;100.00;95805.88;5053054;28;20227;-75
2021/11/04 04:49:44;;;;;;;1999.90;999.90;;;;;;;6.19;100.00;95802.53;5053040;28;20288;-74
2021/11/04 04:52:11;;;;;;;1999.90;999.90;;;;;;;6.18;100.00;95809.50;5052760;28;20228;-74
2021/11/04 04:54:38;;;;;;;1999.90;999.90;;;;;;;6.09;100.00;95812.84;5052673;28;20263;-75
2021/11/04 04:57:05;;;;;;;1999.90;999.90;;;;;;;6.12;100.00;95809.75;5052615;28;20211;-74
2021/11/04 04:59:32;;;;;;;1999.90;999.90;;;;;;;6.02;100.00;95816.47;5052807;28;20271;-74
2021/11/04 05:02:01;;;;;;;1999.90;999.90;;;;;;;5.99;100.00;95811.03;5052552;28;20701;-74
2021/11/04 05:04:28;;;;;;;1999.90;999.90;;;;;;;5.97;100.00;95811.28;5052381;28;20266;-74
2021/11/04 05:06:55;;;;;;;1999.90;999.90;;;;;;;5.74;100.00;95811.72;5052646;28;20200;-74
2021/11/04 05:09:22;;;;;;;1999.90;999.90;;;;;;;5.57;100.00;95803.44;5052745;28;20201;-74
2021/11/04 05:11:49;;;;;;;1999.90;999.90;;;;;;;5.70;100.00;95810.69;5052245;28;20225;-74
2021/11/04 05:14:16;;;;;;;1999.90;999.90;;;;;;;5.60;100.00;95805.50;5052245;28;20255;-74
2021/11/04 05:16:43;;;;;;;1999.90;999.90;;;;;;;5.60;100.00;95797.75;5052090;28;20240;-74
2021/11/04 05:19:11;;;;;;;1999.90;999.90;;;;;;;5.25;100.00;95802.78;5052373;28;20193;-74
2021/11/04 05:21:38;;;;;;;1999.90;999.90;;;;;;;5.19;100.00;95807.16;5052488;28;20205;-74
2021/11/04 05:24:08;;;;;;;1999.90;999.90;;;;;;;5.34;100.00;95814.16;5052376;28;20201;-74
2021/11/04 05:26:35;;;;;;;1999.90;999.90;;;;;;;5.26;100.00;95815.44;5052109;28;20236;-74
2021/11/04 05:29:02;;;;;;;1999.90;999.90;;;;;;;5.33;100.00;95820.38;5052312;28;20284;-74
2021/11/04 05:31:29;;;;;;;1999.90;999.90;;;;;;;5.39;100.00;95821.91;5052140;28;20197;-74
2021/11/04 05:33:56;;;;;;;1999.90;999.90;;;;;;;5.50;100.00;95813.19;5052234;28;20286;-75
2021/11/04 05:36:26;;;;;;;1999.90;999.90;;;;;;;5.50;100.00;95819.13;5052139;28;20629;-74
2021/11/04 05:38:54;;;;;;;1999.90;999.90;;;;;;;5.59;100.00;95827.13;5051815;28;20764;-74
2021/11/04 05:41:22;;;;;;;1999.90;999.90;;;;;;;5.55;100.00;95831.25;5051765;28;20197;-74
2021/11/04 05:43:49;;;;;;;1999.90;999.90;;;;;;;5.66;100.00;95827.69;5051712;28;21055;-75
2021/11/04 05:46:17;;;;;;;1999.90;999.90;;;;;;;5.76;100.00;95822.56;5051656;28;20337;-75
2021/11/04 05:48:44;;;;;;;1999.90;999.90;;;;;;;5.85;100.00;95826.19;5051926;28;20193;-74
2021/11/04 05:51:11;;;;;;;1999.90;999.90;;;;;;;5.82;100.00;95837.03;5051457;28;20704;-74
2021/11/04 05:53:39;;;;;;;1999.90;999.90;;;;;;;5.96;100.00;95835.53;5051387;28;20221;-75
2021/11/04 05:56:07;;;;;;;1999.90;999.90;;;;;;;6.17;100.00;95843.31;5051498;28;20296;-75
2021/11/04 05:58:34;;;;;;;1999.90;999.90;;;;;;;6.44;100.00;95847.19;5051227;28;20204;-73
2021/11/04 06:01:01;;;;;;;1999.90;999.90;;;;;;;6.65;100.00;95860.88;5051310;28;20204;-74
2021/11/04 06:03:28;;;;;;;1999.90;999.90;;;;;;;6.93;100.00;95867.31;5051117;28;20189;-74
2021/11/04 06:05:55;;;;;;;1999.90;999.90;;;;;;;7.06;100.00;95882.28;5051106;28;20263;-74
2021/11/04 06:08:22;;;;;;;1999.90;999.90;;;;;;;7.30;100.00;95882.50;5051120;28;20197;-74
2021/11/04 06:10:51;;;;;;;1999.90;999.90;;;;;;;7.53;100.00;95886.28;5051330;28;20292;-74
2021/11/04 06:13:18;;;;;;;1999.90;999.90;;;;;;;7.68;100.00;95883.66;5050714;28;20338;-74
2021/11/04 06:15:45;;;;;;;1999.90;999.90;;;;;;;7.67;100.00;95882.88;5051030;28;20205;-74
2021/11/04 06:18:12;;;;;;;1999.90;999.90;;;;;;;7.80;100.00;95878.97;5051104;28;20197;-73
2021/11/04 06:20:39;;;;;;;1999.90;999.90;;;;;;;7.65;100.00;95890.16;5050850;28;20262;-74
2021/11/04 06:23:06;;;;;;;1999.90;999.90;;;;;;;7.74;100.00;95893.72;5051160;28;20272;-74
2021/11/04 06:25:33;;;;;;;1999.90;999.90;;;;;;;7.98;100.00;95888.69;5050758;28;20205;-74
2021/11/04 06:28:02;;;;;;;1999.90;999.90;;;;;;;8.07;100.00;95897.44;5051004;28;20271;-75
2021/11/04 06:30:29;;;;;;;1999.90;999.90;;;;;;;8.21;100.00;95897.66;5050654;28;20262;-75
2021/11/04 06:32:56;;;;;;;1999.90;999.90;;;;;;;8.23;100.00;95875.63;5050580;28;20193;-75
2021/11/04 06:35:23;;;;;;;1999.90;999.90;;;;;;;8.16;100.00;95885.50;5050935;28;20727;-74
2021/11/04 06:37:50;;;;;;;1999.90;999.90;;;;;;;8.14;100.00;95895.34;5050586;28;20754;-75
2021/11/04 06:40:17;;;;;;;1999.90;999.90;;;;;;;8.18;100.00;95887.81;5050566;28;20197;-74
2021/11/04 06:42:44;;;;;;;1999.90;999.90;;;;;;;8.46;100.00;95899.34;5050899;28;20201;-74
2021/11/04 06:45:13;;;;;;;1999.90;999.90;;;;;;;8.49;100.00;95909.94;5050742;28;20197;-74
2021/11/04 06:47:48;;;;;;;1999.90;999.90;;;;;;;8.63;100.00;95904.91;5050708;28;20207;-74
2021/11/04 06:50:18;;;;;;;1999.90;999.90;;;;;;;8.87;100.00;95894.63;5050495;28;20208;-74
2021/11/04 06:52:49;;;;;;;1999.90;999.90;;;;;;;8.95;100.00;95907.78;5050427;28;20258;-74
2021/11/04 06:55:17;;;;;;;1999.90;999.90;;;;;;;9.05;100.00;95905.09;5050486;28;20634;-74
2021/11/04 06:57:45;;;;;;;1999.90;999.90;;;;;;;9.44;100.00;95901.63;5050673;28;20212;-74
2021/11/04 07:00:14;;;;;;;1999.90;999.90;;;;;;;9.58;100.00;95907.69;5050372;28;20201;-75
2021/11/04 07:02:43;;;;;;;1999.90;999.90;;;;;;;9.58;100.00;95897.31;5050574;28;20197;-75
2021/11/04 07:05:13;;;;;;;1999.90;999.90;;;;;;;9.85;100.00;95902.72;5050524;28;20262;-75
2021/11/04 07:07:46;;;;;;;1999.90;999.90;;;;;;;10.14;100.00;95901.84;5050063;28;20185;-75
2021/11/04 07:10:17;;;;;;;1999.90;999.90;;;;;;;10.41;100.00;95903.84;5050348;28;20177;-74
2021/11/04 07:12:46;;;;;;;1999.90;999.90;;;;;;;10.68;100.00;95902.13;5050049;28;20233;-74
2021/11/04 07:15:15;;;;;;;1999.90;999.90;;;;;;;10.83;100.00;95905.53;5050502;28;20225;-74
2021/11/04 07:17:44;;;;;;;1999.90;999.90;;;;;;;11.08;100.00;95900.72;5050519;28;20231;-74
2021/11/04 07:20:13;;;;;;;1999.90;999.90;;;;;;;11.23;100.00;95905.66;5050399;28;20287;-74
2021/11/04 07:22:44;;;;;;;1999.90;999.90;;;;;;;11.40;100.00;95899.91;5050256;28;20705;-74
2021/11/04 07:25:12;;;;;;;1999.90;999.90;;;;;;;11.51;100.00;95905.69;5050098;28;20676;-74
2021/11/04 07:27:50;;;;;;;1999.90;999.90;;;;;;;11.77;100.00;95908.59;5050414;28;20193;-74
2021/11/04 07:30:19;;;;;;;1999.90;999.90;;;;;;;11.91;100.00;95912.75;5050298;28;20239;-74
2021/11/04 07:32:49;;;;;;;1999.90;999.90;;;;;;;12.11;100.00;95918.59;5049986;28;20192;-74
2021/11/04 07:35:17;;;;;;;1999.90;999.90;;;;;;;12.15;100.00;95925.56;5050231;28;20225;-73
2021/11/04 07:37:45;;;;;;;1999.90;999.90;;;;;;;12.24;100.00;95915.22;5050121;28;20247;-74
2021/11/04 07:40:13;;;;;;;1999.90;999.90;;;;;;;12.42;100.00;95927.34;5049847;28;20201;-74
2021/11/04 07:42:41;;;;;;;1999.90;999.90;;;;;;;12.61;100.00;95924.56;5050186;28;20201;-74
2021/11/04 07:45:08;;;;;;;1999.90;999.90;;;;;;;12.68;100.00;95910.06;5050230;28;20653;-74
2021/11/04 07:47:38;;;;;;;1999.90;999.90;;;;;;;12.65;100.00;95908.03;5049859;28;20646;-74
2021/11/04 07:50:06;;;;;;;1999.90;999.90;;;;;;;12.75;100.00;95909.66;5049753;28;20837;-74
2021/11/04 07:52:34;;;;;;;1999.90;999.90;;;;;;;12.82;100.00;95912.63;5050173;28;20259;-74
2021/11/04 07:55:02;;;;;;;1999.90;999.90;;;;;;;13.00;100.00;95921.34;5050002;28;20225;-74
2021/11/04 07:57:31;;;;;;;1999.90;999.90;;;;;;;12.99;100.00;95914.56;5050049;28;20680;-74
2021/11/04 07:59:58;;;;;;;1999.90;999.90;;;;;;;13.18;100.00;95907.34;5050034;28;20255;-74
2021/11/04 08:02:25;;;;;;;1999.90;999.90;;;;;;;13.24;100.00;95911.38;5049463;28;20212;-73
2021/11/04 08:04:54;;;;;;;1999.90;999.90;;;;;;;13.46;100.00;95913.16;5049922;28;20270;-73
2021/11/04 08:07:21;;;;;;;1999.90;999.90;;;;;;;13.51;100.00;95905.97;5049607;28;20295;-73
2021/11/04 08:09:48;;;;;;;1999.90;999.90;;;;;;;13.69;100.00;95902.38;5049710;28;20193;-73
2021/11/04 08:12:15;;;;;;;1999.90;999.90;;;;;;;13.88;100.00;95915.16;5049487;28;20237;-73
2021/11/04 08:14:42;;;;;;;1999.90;999.90;;;;;;;13.99;100.00;95906.00;5049680;28;20275;-73
2021/11/04 08:17:09;;;;;;;1999.90;999.90;;;;;;;14.17;100.00;95902.31;5049498;28;20243;-73
2021/11/04 08:19:36;;;;;;;1999.90;999.90;;;;;;;14.30;100.00;95908.47;5052484;28;20327;-73
2021/11/04 08:22:05;;;;;;;1999.90;999.90;;;;;;;14.52;100.00;95916.22;5053451;28;20255;-73
2021/11/04 08:24:32;;;;;;;1999.90;999.90;;;;;;;14.60;99.63;95912.84;5053251;28;20197;-73
2021/11/04 08:26:59;;;;;;;1999.90;999.90;;;;;;;14.74;100.00;95906.69;5053517;28;20204;-73
2021/11/04 08:29:26;;;;;;;1999.90;999.90;;;;;;;14.77;99.53;95913.91;5053393;28;20300;-73
2021/11/04 08:31:53;;;;;;;1999.90;999.90;;;;;;;14.80;98.37;95919.28;5053218;28;20204;-73
2021/11/04 08:34:20;;;;;;;1999.90;999.90;;;;;;;15.01;96.90;95914.19;5053346;28;20708;-73
2021/11/04 08:36:47;;;;;;;1999.90;999.90;;;;;;;15.11;95.44;95908.63;5053079;28;20701;-73
2021/11/04 08:39:16;;;;;;;1999.90;999.90;;;;;;;15.07;96.06;95903.25;5053295;28;20662;-73
2021/11/04 08:41:45;;;;;;;1999.90;999.90;;;;;;;15.32;97.61;95906.13;5052965;28;20251;-73
2021/11/04 08:44:12;;;;;;;1999.90;999.90;;;;;;;15.29;95.31;95904.88;5053203;28;20204;-72
2021/11/04 08:46:39;;;;;;;1999.90;999.90;;;;;;;15.46;94.76;95904.84;5052929;28;20201;-74
2021/11/04 08:49:07;;;;;;;1999.90;999.90;;;;;;;15.54;93.33;95895.47;5052884;28;20680;-73
2021/11/04 08:51:34;;;;;;;1999.90;999.90;;;;;;;15.69;91.99;95894.16;5053186;28;20240;-73
2021/11/04 08:54:01;;;;;;;1999.90;999.90;;;;;;;15.76;90.42;95892.56;5052687;28;20716;-72
2021/11/04 08:56:29;;;;;;;1999.90;999.90;;;;;;;15.94;91.54;95901.09;5052651;28;20894;-73
2021/11/04 08:58:56;;;;;;;1999.90;999.90;;;;;;;15.94;92.00;95893.25;5052550;28;20250;-73
2021/11/04 09:01:24;;;;;;;1999.90;999.90;;;;;;;16.02;90.91;95902.94;5053017;28;20201;-73
2021/11/04 09:03:51;;;;;;;1999.90;999.90;;;;;;;16.15;88.34;95903.75;5052772;28;20204;-73
2021/11/04 09:06:18;;;;;;;1999.90;999.90;;;;;;;16.20;88.32;95900.94;5052771;28;20201;-73
2021/11/04 09:08:45;;;;;;;1999.90;999.90;;;;;;;16.29;89.31;95894.56;5052781;28;20236;-73
2021/11/04 09:11:12;;;;;;;1999.90;999.90;;;;;;;16.38;89.07;95891.91;5052114;28;20194;-72
2021/11/04 09:13:41;;;;;;;1999.90;999.90;;;;;;;16.52;89.33;95894.25;5052488;28;20214;-73
2021/11/04 09:16:08;;;;;;;1999.90;999.90;;;;;;;16.57;87.23;95878.31;5052287;28;20294;-73
2021/11/04 09:18:35;;;;;;;1999.90;999.90;;;;;;;16.71;88.42;95878.84;5052649;28;20283;-73
2021/11/04 09:21:02;;;;;;;1999.90;999.90;;;;;;;16.78;86.32;95868.59;5052168;28;20201;-73
2021/11/04 09:23:29;;;;;;;1999.90;999.90;;;;;;;16.79;86.06;95870.13;5040525;28;20201;-72
2021/11/04 09:25:58;;;;;;;1999.90;999.90;;;;;;;16.95;85.32;95883.41;5052180;28;20259;-73
2021/11/04 09:28:25;;;;;;;1999.90;999.90;;;;;;;17.18;84.47;95895.81;5052048;28;20236;-72
2021/11/04 09:30:53;;;;;;;1999.90;999.90;;;;;;;17.00;85.36;95897.09;5051826;28;20229;-73
2021/11/04 09:33:20;;;;;;;1999.90;999.90;;;;;;;17.07;84.12;95892.09;5052076;28;20232;-72
2021/11/04 09:35:49;;;;;;;1999.90;999.90;;;;;;;17.18;82.30;95893.19;5051943;28;20643;-72
2021/11/04 09:38:16;;;;;;;1999.90;999.90;;;;;;;17.25;81.61;95892.69;5051928;28;20581;-72
2021/11/04 09:40:43;;;;;;;1999.90;999.90;;;;;;;17.38;82.45;95885.59;5051942;28;20205;-72
2021/11/04 09:43:13;;;;;;;1999.90;999.90;;;;;;;17.49;82.00;95887.47;5052176;28;20304;-73
2021/11/04 09:45:40;;;;;;;1999.90;999.90;;;;;;;17.58;80.97;95884.75;5052109;28;20272;-72
2021/11/04 09:48:09;;;;;;;1999.90;999.90;;;;;;;17.62;81.36;95875.13;5051957;28;20251;-72
2021/11/04 09:50:36;;;;;;;1999.90;999.90;;;;;;;17.79;79.40;95880.16;5052101;28;20734;-72
2021/11/04 09:53:03;;;;;;;1999.90;999.90;;;;;;;17.89;80.01;95871.84;5051597;28;20198;-74
2021/11/04 09:55:30;;;;;;;1999.90;999.90;;;;;;;18.05;78.41;95866.66;5051629;28;20225;-73
2021/11/04 09:58:00;;;;;;;1999.90;999.90;;;;;;;18.12;78.49;95866.13;5051904;28;20208;-73
2021/11/04 10:00:34;;;;;;;1999.90;999.90;;;;;;;18.19;77.67;95867.06;5051830;28;20219;-73
2021/11/04 10:03:06;;;;;;;1999.90;999.90;;;;;;;18.26;77.40;95856.00;5051747;28;20557;-73
2021/11/04 10:05:45;;;;;;;1999.90;999.90;;;;;;;18.31;77.60;95853.91;5051797;28;20536;-73
2021/11/04 10:08:14;;;;;;;1999.90;999.90;;;;;;;18.50;77.53;95845.41;5051351;28;20177;-73
2021/11/04 10:10:42;;;;;;;1999.90;999.90;;;;;;;18.62;75.09;95839.34;5051333;28;20207;-73
2021/11/04 10:13:11;;;;;;;1999.90;999.90;;;;;;;18.62;74.17;95837.50;5051157;28;20310;-73
2021/11/04 10:15:40;;;;;;;1999.90;999.90;;;;;;;18.60;76.37;95829.16;5051424;28;20265;-73
2021/11/04 10:18:16;;;;;;;1999.90;999.90;;;;;;;18.60;76.69;95826.53;5051346;28;20655;-73
2021/11/04 10:20:53;;;;;;;1999.90;999.90;;;;;;;18.61;76.40;95816.75;5051039;28;20197;-73
2021/11/04 10:23:20;;;;;;;1999.90;999.90;;;;;;;18.69;76.02;95816.59;5051133;28;20256;-74
2021/11/04 10:25:48;;;;;;;1999.90;999.90;;;;;;;18.82;75.15;95815.44;5051331;28;20201;-73
2021/11/04 10:28:23;;;;;;;1999.90;999.90;;;;;;;18.87;76.32;95817.84;5051095;28;20258;-73
2021/11/04 10:30:51;;;;;;;1999.90;999.90;;;;;;;18.73;74.06;95817.44;5051270;28;20200;-73
2021/11/04 10:33:26;;;;;;;1999.90;999.90;;;;;;;18.75;76.12;95819.75;5051299;28;20669;-73
2021/11/04 10:36:05;;;;;;;1999.90;999.90;;;;;;;18.86;74.44;95821.56;5051553;28;20205;-73
2021/11/04 10:38:37;;;;;;;1999.90;999.90;;;;;;;18.77;74.83;95812.31;5051298;28;20185;-73
2021/11/04 10:41:11;;;;;;;1999.90;999.90;;;;;;;18.79;74.81;95812.72;5050379;28;20629;-73
2021/11/04 10:43:39;;;;;;;1999.90;999.90;;;;;;;18.81;75.55;95803.38;5050873;28;20181;-72
2021/11/04 10:46:10;;;;;;;1999.90;999.90;;;;;;;18.91;75.79;95804.75;5050752;28;20193;-72
2021/11/04 10:48:39;;;;;;;1999.90;999.90;;;;;;;19.00;73.50;95805.34;5050684;28;20229;-72
2021/11/04 10:51:08;;;;;;;1999.90;999.90;;;;;;;19.05;74.63;95799.06;5050572;28;20631;-73
2021/11/04 10:53:35;;;;;;;1999.90;999.90;;;;;;;18.99;75.24;95795.16;5050960;28;20263;-72
2021/11/04 10:56:19;;;;;;;1999.90;999.90;;;;;;;19.04;75.22;95784.34;5050730;28;20311;-72